Time;durP1;ratioP1;P1;durP2;ratioP2;P2;SDS_P1;SDS_P2;PMS_P1;PMS_P2;Temp;Humidity;BMP_temperature;BMP_pressure;BME280_temperature;BME280_humidity;BME280_pressure;Samples;Min_cycle;Max_cycle;Signal;HPM_P1;HPM_P2
2022/10/07 00:00:19;;;;;;;3.92;1.88;;;;;;;9.23;61.53;95890.00;5053523;28;20032;-75
2022/10/07 00:02:44;;;;;;;2.90;1.75;;;;;;;9.23;61.82;95881.41;5053207;28;20036;-74
2022/10/07 00:05:10;;;;;;;2.83;1.50;;;;;;;9.23;62.71;95892.59;5069911;28;20028;-74
2022/10/07 00:07:35;;;;;;;2.38;1.48;;;;;;;9.16;63.37;95883.50;5053164;28;20040;-74
2022/10/07 00:10:01;;;;;;;2.40;1.50;;;;;;;9.12;63.68;95895.00;5053231;28;20398;-74
2022/10/07 00:12:27;;;;;;;2.60;1.77;;;;;;;9.10;63.82;95884.72;5036447;28;20032;-74
2022/10/07 00:14:53;;;;;;;4.93;1.55;;;;;;;9.03;62.47;95878.25;5053361;28;20095;-74
2022/10/07 00:17:18;;;;;;;2.25;1.38;;;;;;;8.99;62.96;95904.44;5052998;28;20033;-74
2022/10/07 00:19:44;;;;;;;2.40;1.63;;;;;;;8.90;63.39;95898.03;5053102;28;20035;-74
2022/10/07 00:22:09;;;;;;;4.15;1.60;;;;;;;8.84;63.79;95894.03;5069558;28;20491;-74
2022/10/07 00:24:35;;;;;;;2.72;1.33;;;;;;;8.82;64.14;95898.47;5070825;28;20021;-74
2022/10/07 00:27:00;;;;;;;2.53;1.80;;;;;;;8.75;63.85;95884.22;5052884;28;20418;-74
2022/10/07 00:29:26;;;;;;;3.45;1.40;;;;;;;8.73;64.08;95878.28;5036431;28;20020;-74
2022/10/07 00:31:51;;;;;;;3.55;1.35;;;;;;;8.76;64.25;95878.13;5069409;28;20036;-74
2022/10/07 00:34:17;;;;;;;2.58;1.50;;;;;;;8.65;64.51;95875.31;5069565;28;20074;-74
2022/10/07 00:36:42;;;;;;;3.25;1.40;;;;;;;8.67;64.63;95883.84;5069407;28;20059;-74
2022/10/07 00:39:10;;;;;;;3.25;1.50;;;;;;;8.57;65.09;95867.16;5052281;28;20036;-74
2022/10/07 00:41:50;;;;;;;2.78;1.30;;;;;;;8.52;65.34;95874.34;5032909;28;20388;-74
2022/10/07 00:44:30;;;;;;;4.28;2.50;;;;;;;8.54;65.23;95877.69;5034177;28;20119;-74
2022/10/07 00:46:57;;;;;;;3.80;2.40;;;;;;;8.46;64.73;95876.38;5050587;28;20502;-74
2022/10/07 00:49:23;;;;;;;2.40;1.70;;;;;;;8.58;64.12;95881.75;5032914;28;20037;-74
2022/10/07 00:51:50;;;;;;;4.82;1.90;;;;;;;8.57;64.57;95872.34;5019958;28;20036;-74
2022/10/07 00:54:16;;;;;;;2.10;1.40;;;;;;;8.64;63.70;95863.31;5053470;28;20025;-74
2022/10/07 00:56:41;;;;;;;2.33;1.60;;;;;;;8.62;63.46;95865.97;5020130;28;20442;-74
2022/10/07 00:59:07;;;;;;;2.83;1.70;;;;;;;8.63;63.20;95864.22;5053376;28;20095;-74
2022/10/07 01:01:32;;;;;;;3.30;1.70;;;;;;;8.76;63.35;95869.50;5020152;28;20103;-74
2022/10/07 01:03:58;;;;;;;4.32;1.63;;;;;;;8.70;63.24;95858.59;5053498;28;20040;-74
2022/10/07 01:06:23;;;;;;;2.08;1.38;;;;;;;8.73;63.66;95862.75;5036704;28;20021;-74
2022/10/07 01:08:49;;;;;;;4.72;1.30;;;;;;;8.76;62.85;95856.56;5036737;28;20127;-74
2022/10/07 01:11:17;;;;;;;3.85;1.40;;;;;;;8.79;63.55;95866.75;5036669;28;20033;-74
2022/10/07 01:13:45;;;;;;;3.45;1.65;;;;;;;8.78;64.38;95865.09;5053361;28;20067;-74
2022/10/07 01:16:36;;;;;;;2.20;1.50;;;;;;;8.75;64.45;95868.69;5054230;28;20025;-74
2022/10/07 01:19:11;;;;;;;2.60;1.73;;;;;;;8.69;64.41;95861.25;5036396;28;20460;-74
2022/10/07 01:21:57;;;;;;;3.83;1.83;;;;;;;8.62;63.72;95859.97;5054113;28;20037;-74
2022/10/07 01:24:39;;;;;;;3.33;1.80;;;;;;;8.57;64.41;95865.41;5052829;28;20029;-74
2022/10/07 01:27:18;;;;;;;2.80;1.73;;;;;;;8.36;64.57;95862.28;5052804;28;20037;-74
2022/10/07 01:29:54;;;;;;;2.50;1.60;;;;;;;8.28;65.49;95867.88;5052874;28;20033;-74
2022/10/07 01:32:24;;;;;;;3.38;2.10;;;;;;;8.21;65.41;95868.31;5054125;28;20033;-74
2022/10/07 01:34:50;;;;;;;2.75;1.80;;;;;;;8.00;65.67;95858.25;5036157;28;20112;-74
2022/10/07 01:37:15;;;;;;;3.80;2.47;;;;;;;7.92;66.81;95870.78;5035960;28;20056;-74
2022/10/07 01:39:55;;;;;;;5.30;2.30;;;;;;;7.95;66.88;95860.28;5040855;28;20090;-74
2022/10/07 01:42:21;;;;;;;3.45;1.90;;;;;;;7.95;66.53;95855.09;5072566;28;20025;-74
2022/10/07 01:44:50;;;;;;;2.92;2.00;;;;;;;7.87;66.91;95848.69;5055911;28;20060;-74
2022/10/07 01:47:15;;;;;;;4.53;1.70;;;;;;;7.96;67.27;95856.75;5039493;28;20058;-74
2022/10/07 01:49:41;;;;;;;3.97;1.80;;;;;;;8.04;67.14;95854.56;5055892;28;20453;-74
2022/10/07 01:52:12;;;;;;;2.05;1.60;;;;;;;8.16;67.11;95857.38;5072365;28;20399;-74
2022/10/07 01:54:44;;;;;;;3.63;2.10;;;;;;;8.03;66.21;95858.09;5072330;28;20142;-74
2022/10/07 01:57:18;;;;;;;3.10;1.80;;;;;;;7.94;66.87;95845.69;5072940;28;20051;-74
2022/10/07 02:00:05;;;;;;;3.20;1.92;;;;;;;7.95;67.61;95849.91;5072246;28;20039;-74
2022/10/07 02:02:50;;;;;;;3.88;1.90;;;;;;;7.96;66.98;95858.50;5071232;28;20127;-74
2022/10/07 02:05:37;;;;;;;3.70;2.00;;;;;;;7.82;67.53;95849.75;5073307;28;20032;-74
2022/10/07 02:08:30;;;;;;;3.53;2.00;;;;;;;7.84;67.45;95847.09;5055236;28;20040;-74
2022/10/07 02:11:14;;;;;;;4.25;2.50;;;;;;;7.75;68.06;95853.63;5073208;28;20491;-74
2022/10/07 02:14:03;;;;;;;3.72;2.35;;;;;;;7.74;68.11;95851.09;5072265;28;20040;-74
2022/10/07 02:16:40;;;;;;;3.38;2.35;;;;;;;7.76;67.91;95860.44;5055135;28;20483;-74
2022/10/07 02:19:18;;;;;;;3.33;2.10;;;;;;;7.80;67.82;95858.53;5071887;28;20510;-74
2022/10/07 02:21:44;;;;;;;4.50;2.70;;;;;;;7.87;67.77;95861.63;5055395;28;20029;-74
2022/10/07 02:24:10;;;;;;;4.00;2.30;;;;;;;7.81;67.87;95860.19;5055113;28;20063;-74
2022/10/07 02:26:35;;;;;;;3.58;2.15;;;;;;;7.80;67.39;95853.34;5055006;28;20050;-74
2022/10/07 02:29:02;;;;;;;4.40;2.80;;;;;;;7.72;67.67;95864.13;5071749;28;20037;-74
2022/10/07 02:31:29;;;;;;;3.13;2.22;;;;;;;7.66;68.42;95859.31;5055143;28;20029;-75
2022/10/07 02:33:56;;;;;;;3.00;2.20;;;;;;;7.70;68.20;95865.97;5038681;28;20078;-74
2022/10/07 02:36:27;;;;;;;4.32;2.30;;;;;;;7.56;68.06;95860.72;5054991;28;20083;-74
2022/10/07 02:38:53;;;;;;;3.95;2.30;;;;;;;7.54;68.79;95865.94;5055243;28;20071;-74
2022/10/07 02:41:54;;;;;;;4.28;2.38;;;;;;;7.53;67.92;95859.13;5036426;28;20017;-74
2022/10/07 02:44:24;;;;;;;4.68;2.78;;;;;;;7.45;68.81;95863.03;5051460;28;20509;-74
2022/10/07 02:47:08;;;;;;;3.28;2.20;;;;;;;7.55;68.42;95856.44;5035180;28;20499;-74
2022/10/07 02:49:37;;;;;;;3.25;2.28;;;;;;;7.35;68.03;95850.63;5052882;28;20033;-74
2022/10/07 02:52:10;;;;;;;3.45;2.50;;;;;;;7.13;69.75;95848.34;5018864;28;20029;-74
2022/10/07 02:54:42;;;;;;;3.40;2.40;;;;;;;7.30;68.54;95872.44;5019129;28;20130;-74
2022/10/07 02:57:08;;;;;;;4.05;2.40;;;;;;;7.12;69.33;95864.75;5051106;28;20032;-74
2022/10/07 02:59:34;;;;;;;3.47;2.50;;;;;;;7.00;70.16;95878.31;5051218;28;20414;-74
2022/10/07 03:02:00;;;;;;;3.72;2.25;;;;;;;7.07;69.91;95876.22;5034502;28;20029;-74
2022/10/07 03:04:26;;;;;;;3.95;2.50;;;;;;;6.99;70.70;95868.03;5034529;28;20518;-74
2022/10/07 03:06:51;;;;;;;4.05;2.42;;;;;;;7.12;69.36;95866.50;5017859;28;20024;-74
2022/10/07 03:09:16;;;;;;;3.30;2.10;;;;;;;7.01;69.94;95877.38;5034328;28;20025;-74
2022/10/07 03:11:42;;;;;;;3.85;2.50;;;;;;;7.04;69.85;95876.41;5034273;28;20032;-74
2022/10/07 03:14:08;;;;;;;3.60;2.25;;;;;;;7.01;69.98;95871.38;5052056;28;20403;-74
2022/10/07 03:16:34;;;;;;;3.75;2.20;;;;;;;6.93;70.42;95848.53;5051038;28;20021;-74
2022/10/07 03:18:59;;;;;;;3.30;2.25;;;;;;;7.07;70.06;95861.56;5051014;28;20545;-74
2022/10/07 03:21:25;;;;;;;4.50;2.50;;;;;;;7.09;70.08;95864.91;5017692;28;20020;-74
2022/10/07 03:23:51;;;;;;;4.63;2.55;;;;;;;7.05;70.44;95863.41;5017898;28;20629;-74
2022/10/07 03:26:18;;;;;;;4.63;3.20;;;;;;;7.11;70.29;95859.66;5034071;28;20037;-74
2022/10/07 03:28:43;;;;;;;3.60;2.40;;;;;;;7.12;69.82;95864.75;5050556;28;20458;-74
2022/10/07 03:31:10;;;;;;;3.00;1.95;;;;;;;6.99;70.32;95860.28;5050591;28;20049;-74
2022/10/07 03:33:36;;;;;;;3.40;2.00;;;;;;;6.91;69.79;95855.56;5034157;28;20507;-75
2022/10/07 03:36:02;;;;;;;3.97;2.58;;;;;;;6.85;70.14;95859.28;5017217;28;20064;-74
2022/10/07 03:38:28;;;;;;;2.85;1.85;;;;;;;6.96;70.48;95853.53;5017646;28;20067;-74
2022/10/07 03:40:53;;;;;;;2.97;2.03;;;;;;;6.95;70.38;95854.47;5065191;28;20029;-74
2022/10/07 03:43:19;;;;;;;3.30;2.03;;;;;;;6.93;70.70;95849.38;5036900;28;20074;-75
2022/10/07 03:45:47;;;;;;;3.85;2.25;;;;;;;6.94;70.68;95850.22;5049320;28;20028;-75
2022/10/07 03:48:13;;;;;;;3.80;2.20;;;;;;;6.93;70.78;95862.28;5066623;28;20486;-74
2022/10/07 03:50:38;;;;;;;4.03;1.98;;;;;;;6.92;70.30;95857.22;5059137;28;20029;-74
2022/10/07 03:53:04;;;;;;;4.32;2.13;;;;;;;6.91;70.47;95863.31;5070172;28;20518;-75
2022/10/07 03:55:29;;;;;;;3.80;2.40;;;;;;;6.91;70.54;95865.88;5053386;28;20115;-75
2022/10/07 03:57:56;;;;;;;2.70;2.10;;;;;;;6.89;70.92;95867.69;5070110;28;20032;-75
2022/10/07 04:00:23;;;;;;;2.95;2.10;;;;;;;6.91;71.44;95860.72;5069973;28;20028;-75
2022/10/07 04:02:49;;;;;;;3.88;2.63;;;;;;;6.88;70.91;95858.25;5052180;28;20041;-75
2022/10/07 04:05:15;;;;;;;3.25;2.53;;;;;;;6.93;71.16;95864.03;5036573;28;20020;-75
2022/10/07 04:07:44;;;;;;;3.45;2.80;;;;;;;6.90;71.14;95864.19;5069998;28;20037;-74
2022/10/07 04:10:11;;;;;;;2.88;2.30;;;;;;;6.84;70.39;95870.50;5036643;28;20067;-75
2022/10/07 04:12:36;;;;;;;2.55;2.00;;;;;;;6.82;70.87;95863.75;5053410;28;20046;-75
2022/10/07 04:15:02;;;;;;;3.33;2.20;;;;;;;6.82;71.82;95856.84;5070967;28;20115;-75
2022/10/07 04:17:28;;;;;;;2.85;2.03;;;;;;;6.85;71.67;95859.28;5053162;28;20033;-75
2022/10/07 04:19:53;;;;;;;5.50;2.20;;;;;;;6.85;71.98;95856.69;5036700;28;20028;-75
2022/10/07 04:22:19;;;;;;;3.42;2.08;;;;;;;6.81;71.71;95859.50;5069621;28;20033;-75
2022/10/07 04:25:32;;;;;;;3.42;2.00;;;;;;;6.84;71.85;95859.34;5069180;28;20028;-75
2022/10/07 04:27:30;;;;;;;3.90;2.10;;;;;;;6.83;71.19;95862.84;5069791;28;20406;-74
2022/10/07 04:29:55;;;;;;;3.40;2.10;;;;;;;6.76;71.41;95859.72;5069606;28;20028;-75
2022/10/07 04:32:21;;;;;;;2.25;1.65;;;;;;;6.89;72.07;95862.53;5070865;28;20044;-75
2022/10/07 04:34:49;;;;;;;2.95;2.10;;;;;;;6.87;71.04;95852.28;5067739;28;20032;-75
2022/10/07 04:37:15;;;;;;;3.97;1.80;;;;;;;6.77;71.81;95856.25;5057414;28;20711;-75
2022/10/07 04:39:40;;;;;;;3.78;1.98;;;;;;;6.78;72.19;95857.09;5041872;28;20025;-75
2022/10/07 04:42:06;;;;;;;3.63;2.60;;;;;;;6.92;71.30;95846.88;5049352;28;20036;-75
2022/10/07 04:44:31;;;;;;;4.50;2.40;;;;;;;6.88;71.19;95856.53;5049456;28;20055;-74
2022/10/07 04:46:57;;;;;;;3.25;2.50;;;;;;;6.79;71.81;95863.91;5062363;28;20029;-75
2022/10/07 04:49:22;;;;;;;3.78;2.35;;;;;;;6.71;72.30;95846.22;5050597;28;20034;-75
2022/10/07 04:51:48;;;;;;;4.57;2.70;;;;;;;6.86;72.22;95863.53;5050667;28;20044;-74
2022/10/07 04:54:13;;;;;;;4.93;3.05;;;;;;;6.78;72.42;95857.09;5040291;28;20036;-75
2022/10/07 04:56:38;;;;;;;5.13;2.95;;;;;;;6.75;72.74;95860.66;5046060;28;20047;-74
2022/10/07 04:59:04;;;;;;;6.57;3.90;;;;;;;6.84;72.40;95867.09;5044548;28;20387;-75
2022/10/07 05:01:30;;;;;;;5.75;4.13;;;;;;;6.89;72.40;95867.69;5048732;28;20576;-75
2022/10/07 05:03:56;;;;;;;5.88;4.25;;;;;;;6.93;72.47;95870.03;5069000;28;20052;-75
2022/10/07 05:06:22;;;;;;;5.60;3.80;;;;;;;6.97;72.16;95875.91;5051815;28;20578;-75
2022/10/07 05:08:48;;;;;;;6.55;4.03;;;;;;;6.99;72.03;95871.47;5052732;28;20131;-75
2022/10/07 05:11:14;;;;;;;8.63;3.92;;;;;;;6.89;72.35;95865.13;5068724;28;20032;-74
2022/10/07 05:13:39;;;;;;;5.93;3.08;;;;;;;7.00;72.21;95886.06;5036019;28;20418;-75
2022/10/07 05:16:08;;;;;;;5.05;3.22;;;;;;;6.97;72.00;95872.47;5068768;28;20032;-75
2022/10/07 05:18:34;;;;;;;4.90;3.30;;;;;;;7.03;72.03;95891.06;5070863;28;20032;-75
2022/10/07 05:21:05;;;;;;;5.88;3.40;;;;;;;7.07;71.93;95891.75;5067619;28;20110;-75
2022/10/07 05:23:31;;;;;;;3.30;2.65;;;;;;;7.05;72.04;95894.41;5052592;28;20414;-74
2022/10/07 05:26:03;;;;;;;3.83;2.67;;;;;;;6.99;71.70;95899.88;5051508;28;20055;-75
2022/10/07 05:28:28;;;;;;;3.60;2.42;;;;;;;7.00;71.81;95905.91;5036553;28;20033;-75
2022/10/07 05:31:02;;;;;;;2.85;2.30;;;;;;;6.87;72.46;95900.50;5067774;28;20112;-74
2022/10/07 05:33:30;;;;;;;3.13;2.60;;;;;;;6.92;72.75;95909.69;5068088;28;20041;-75
2022/10/07 05:35:56;;;;;;;2.83;2.00;;;;;;;6.96;72.88;95915.53;5068394;28;20048;-74
2022/10/07 05:38:22;;;;;;;4.13;2.72;;;;;;;6.90;73.00;95901.19;5071246;28;20040;-75
2022/10/07 05:40:55;;;;;;;3.00;2.30;;;;;;;6.96;73.53;95907.78;5055992;28;20043;-75
2022/10/07 05:43:21;;;;;;;2.92;2.08;;;;;;;7.00;73.00;95901.56;5072539;28;20028;-75
2022/10/07 05:45:46;;;;;;;3.03;2.15;;;;;;;6.98;72.84;95911.13;5073191;28;20059;-75
2022/10/07 05:48:12;;;;;;;4.55;2.35;;;;;;;7.02;73.40;95915.25;5055919;28;20059;-75
2022/10/07 05:50:38;;;;;;;4.13;2.10;;;;;;;7.01;73.07;95903.22;5039188;28;20499;-75
2022/10/07 05:53:04;;;;;;;2.95;2.00;;;;;;;7.05;73.64;95916.81;5070352;28;20029;-75
2022/10/07 05:55:29;;;;;;;2.83;2.00;;;;;;;7.19;73.71;95916.09;5055078;28;20509;-75
2022/10/07 05:57:55;;;;;;;3.28;2.10;;;;;;;7.29;74.01;95922.47;5054830;28;20115;-74
2022/10/07 06:00:20;;;;;;;4.57;3.13;;;;;;;7.39;74.28;95918.50;5055188;28;20025;-74
2022/10/07 06:02:45;;;;;;;6.57;3.55;;;;;;;7.54;73.32;95911.66;5071981;28;20052;-74
2022/10/07 06:05:11;;;;;;;4.75;3.35;;;;;;;7.72;73.40;95926.22;5072144;28;20044;-74
2022/10/07 06:07:36;;;;;;;6.07;2.40;;;;;;;7.94;73.16;95930.19;5071701;28;20138;-73
2022/10/07 06:15:30;;;;;;;4.63;2.08;;;;;;;8.49;72.58;95922.81;5056976;28;20035;-72
2022/10/07 06:17:55;;;;;;;3.20;1.83;;;;;;;8.71;72.31;95917.22;5054352;28;20453;-73
2022/10/07 06:20:21;;;;;;;2.85;2.10;;;;;;;8.92;72.02;95909.97;5069447;28;20097;-72
2022/10/07 06:22:46;;;;;;;4.60;1.80;;;;;;;9.24;70.97;95915.00;5069761;28;20036;-72
2022/10/07 06:25:12;;;;;;;2.75;1.77;;;;;;;9.50;70.25;95910.84;5070759;28;20029;-72
2022/10/07 06:27:37;;;;;;;5.30;2.20;;;;;;;9.75;69.58;95910.16;5053546;28;20418;-72
2022/10/07 06:30:03;;;;;;;3.38;2.22;;;;;;;10.90;68.11;95907.13;5053950;28;20025;-72
2022/10/07 06:32:29;;;;;;;2.67;2.10;;;;;;;12.12;62.19;95897.00;5053497;28;20028;-73
2022/10/07 06:34:55;;;;;;;2.97;2.08;;;;;;;13.12;58.95;95896.53;5053224;28;20043;-73
2022/10/07 06:37:21;;;;;;;6.03;4.45;;;;;;;14.22;55.37;95900.19;5052581;28;20562;-73
2022/10/07 06:39:47;;;;;;;10.00;6.22;;;;;;;15.21;51.51;95895.59;5070767;28;20017;-73
2022/10/07 06:42:12;;;;;;;5.40;2.75;;;;;;;16.21;49.74;95903.56;5052750;28;20390;-73
2022/10/07 06:44:38;;;;;;;6.00;3.17;;;;;;;16.93;48.03;95906.81;5069325;28;20032;-73
2022/10/07 06:47:03;;;;;;;7.30;5.00;;;;;;;17.57;44.94;95907.91;5035954;28;20037;-73
2022/10/07 06:49:30;;;;;;;7.25;3.28;;;;;;;18.23;42.58;95913.03;5070277;28;20476;-73
2022/10/07 06:51:55;;;;;;;4.32;2.80;;;;;;;18.79;41.02;95915.59;5069246;28;20041;-73
2022/10/07 06:54:21;;;;;;;9.07;3.33;;;;;;;19.01;40.49;95922.22;5035992;28;20074;-73
2022/10/07 06:56:46;;;;;;;6.53;3.45;;;;;;;19.29;40.82;95928.19;5069527;28;20040;-74
2022/10/07 06:59:11;;;;;;;7.13;4.30;;;;;;;19.62;40.04;95914.22;5054512;28;20037;-73
2022/10/07 07:01:37;;;;;;;7.55;4.45;;;;;;;19.88;39.54;95921.31;5070996;28;20082;-74
2022/10/07 07:04:02;;;;;;;7.10;4.03;;;;;;;20.13;38.65;95921.41;5071001;28;20062;-74
2022/10/07 07:06:28;;;;;;;11.68;3.90;;;;;;;20.47;38.00;95916.88;5070986;28;20047;-74
2022/10/07 07:08:59;;;;;;;6.88;3.95;;;;;;;20.61;37.97;95912.00;5071225;28;20029;-73
2022/10/07 07:11:39;;;;;;;13.55;4.47;;;;;;;20.69;37.82;95914.66;5054638;28;20027;-72
2022/10/07 07:14:05;;;;;;;8.00;4.10;;;;;;;20.74;36.40;95913.19;5041506;28;20513;-73
2022/10/07 07:16:31;;;;;;;9.40;4.07;;;;;;;20.70;36.84;95911.06;5037594;28;20028;-73
2022/10/07 07:18:58;;;;;;;9.30;3.90;;;;;;;20.88;36.95;95911.72;5054355;28;20056;-74
2022/10/07 07:21:24;;;;;;;9.00;3.70;;;;;;;20.75;36.98;95903.44;5054548;28;20430;-75
2022/10/07 07:23:50;;;;;;;5.22;3.58;;;;;;;20.94;35.92;95912.88;5053920;28;20483;-74
2022/10/07 07:26:17;;;;;;;14.00;4.10;;;;;;;20.58;37.66;95899.97;5053884;28;20044;-73
2022/10/07 07:28:43;;;;;;;8.05;3.30;;;;;;;20.35;36.86;95899.72;5070742;28;20074;-73
2022/10/07 07:31:09;;;;;;;7.70;3.20;;;;;;;20.41;37.71;95906.16;5053725;28;20122;-72
2022/10/07 07:33:37;;;;;;;6.65;3.08;;;;;;;20.45;39.43;95903.06;5054205;28;20029;-73
2022/10/07 07:36:14;;;;;;;8.50;3.83;;;;;;;20.37;37.57;95905.66;5053895;28;20048;-73
2022/10/07 07:38:41;;;;;;;5.43;3.70;;;;;;;20.21;37.17;95905.63;5054355;28;20040;-72
2022/10/07 07:41:06;;;;;;;6.35;3.60;;;;;;;19.79;38.68;95899.34;5070319;28;20094;-72
2022/10/07 07:43:32;;;;;;;7.32;3.63;;;;;;;19.75;39.87;95894.53;5037103;28;20517;-72
2022/10/07 07:45:57;;;;;;;7.18;4.38;;;;;;;19.66;39.21;95900.78;5070207;28;20044;-73
2022/10/07 07:48:23;;;;;;;9.27;5.00;;;;;;;19.75;38.73;95898.03;5037119;28;20032;-72
2022/10/07 07:50:48;;;;;;;10.15;5.05;;;;;;;19.75;38.71;95894.53;5053483;28;20024;-73
2022/10/07 07:53:14;;;;;;;8.82;5.25;;;;;;;19.51;39.30;95885.50;5070201;28;20043;-72
2022/10/07 07:55:39;;;;;;;9.02;4.68;;;;;;;19.33;40.11;95898.72;5053384;28;20044;-72
2022/10/07 07:58:07;;;;;;;10.60;4.40;;;;;;;19.27;40.28;95888.81;5071206;28;20028;-73
2022/10/07 08:00:34;;;;;;;7.85;4.40;;;;;;;19.30;40.14;95893.78;5069309;28;20031;-72
2022/10/07 08:02:59;;;;;;;7.00;3.90;;;;;;;19.29;39.18;95891.31;5036787;28;20502;-72
2022/10/07 08:05:24;;;;;;;6.35;3.60;;;;;;;19.37;39.36;95880.81;5071128;28;20029;-73
2022/10/07 08:07:51;;;;;;;8.60;3.95;;;;;;;19.49;39.36;95879.56;5071354;28;20072;-72
2022/10/07 08:10:16;;;;;;;8.82;4.22;;;;;;;19.66;39.35;95874.41;5069855;28;20032;-75
2022/10/07 08:12:42;;;;;;;7.10;3.70;;;;;;;19.63;38.31;95876.34;5069814;28;20044;-73
2022/10/07 08:15:09;;;;;;;9.13;3.85;;;;;;;19.71;39.50;95872.13;5053012;28;20113;-73
2022/10/07 08:17:35;;;;;;;9.40;3.20;;;;;;;19.73;38.16;95860.44;5053360;28;20086;-73
2022/10/07 08:20:00;;;;;;;10.55;3.65;;;;;;;19.81;38.47;95867.56;5069796;28;20029;-73
2022/10/07 08:22:25;;;;;;;8.68;3.55;;;;;;;19.88;38.15;95862.47;5036380;28;20036;-73
2022/10/07 08:24:51;;;;;;;6.07;2.85;;;;;;;19.89;38.04;95853.56;5070845;28;20036;-73
2022/10/07 08:27:17;;;;;;;5.70;2.85;;;;;;;19.99;37.22;95859.56;5069714;28;20035;-73
2022/10/07 08:29:43;;;;;;;4.57;2.65;;;;;;;19.90;36.11;95853.44;5069635;28;20028;-73
2022/10/07 08:32:08;;;;;;;8.68;2.30;;;;;;;19.82;36.64;95850.75;5052851;28;20504;-73
2022/10/07 08:34:35;;;;;;;11.00;2.70;;;;;;;19.77;37.45;95850.41;5069667;28;20074;-73
2022/10/07 08:37:00;;;;;;;4.75;2.25;;;;;;;19.76;37.44;95843.50;5052744;28;20059;-73
2022/10/07 08:39:28;;;;;;;6.97;2.35;;;;;;;19.64;36.34;95841.13;5036268;28;20020;-73
2022/10/07 08:42:16;;;;;;;7.05;2.35;;;;;;;19.60;35.44;95845.03;5069459;28;20029;-73
2022/10/07 08:44:46;;;;;;;5.50;2.30;;;;;;;19.40;36.97;95846.25;5053172;28;20048;-73
2022/10/07 08:47:22;;;;;;;6.53;2.50;;;;;;;19.39;37.02;95831.44;5069453;28;20044;-73
2022/10/07 08:50:15;;;;;;;5.15;2.45;;;;;;;19.26;36.22;95837.13;5053530;28;20040;-73
2022/10/07 08:52:58;;;;;;;3.88;2.22;;;;;;;19.09;36.88;95840.66;5070914;28;20033;-73
2022/10/07 08:55:40;;;;;;;4.25;2.38;;;;;;;19.01;36.57;95835.31;5053014;28;20089;-73
2022/10/07 08:58:14;;;;;;;3.63;1.98;;;;;;;18.90;36.14;95833.75;5070863;28;20059;-73
2022/10/07 09:00:43;;;;;;;3.65;2.00;;;;;;;18.79;36.81;95828.75;5069363;28;20037;-73
2022/10/07 09:03:16;;;;;;;3.95;2.05;;;;;;;18.70;38.11;95823.38;5069136;28;20028;-72
2022/10/07 09:05:43;;;;;;;3.50;2.10;;;;;;;18.66;37.58;95819.38;5053140;28;20283;-73
2022/10/07 09:08:36;;;;;;;5.65;2.20;;;;;;;18.64;37.66;95817.91;5069450;28;20025;-73
2022/10/07 09:11:14;;;;;;;3.78;2.10;;;;;;;18.66;38.47;95814.13;5068014;28;20044;-73
2022/10/07 09:13:41;;;;;;;3.45;2.08;;;;;;;18.73;38.03;95802.03;5073577;28;20542;-73
2022/10/07 09:16:15;;;;;;;5.03;2.20;;;;;;;18.80;38.34;95806.69;5056661;28;20024;-73
2022/10/07 09:18:53;;;;;;;7.70;2.20;;;;;;;18.84;38.27;95802.78;5040637;28;20089;-73
2022/10/07 09:21:24;;;;;;;2.92;1.90;;;;;;;18.94;36.62;95806.13;5074273;28;20525;-73
2022/10/07 09:23:56;;;;;;;3.83;2.00;;;;;;;18.78;37.26;95800.75;5056446;28;20040;-73
2022/10/07 09:26:22;;;;;;;3.88;1.92;;;;;;;18.77;37.52;95794.66;5057207;28;20036;-73
2022/10/07 09:28:48;;;;;;;5.53;1.90;;;;;;;18.84;36.99;95794.91;5056509;28;20033;-73
2022/10/07 09:31:14;;;;;;;4.20;1.90;;;;;;;18.93;36.42;95788.69;5039846;28;20111;-73
2022/10/07 09:33:41;;;;;;;2.97;1.85;;;;;;;18.78;37.38;95782.34;5056404;28;20490;-73
2022/10/07 09:36:08;;;;;;;4.35;2.08;;;;;;;18.78;36.87;95779.69;5039360;28;20080;-73
2022/10/07 09:38:40;;;;;;;3.95;1.80;;;;;;;18.86;37.03;95785.88;5056461;28;20040;-73
2022/10/07 09:41:16;;;;;;;3.90;1.80;;;;;;;18.89;37.51;95779.47;5072892;28;20103;-73
2022/10/07 09:43:50;;;;;;;4.32;2.40;;;;;;;18.94;38.04;95782.44;5072731;28;20041;-73
2022/10/07 09:46:48;;;;;;;5.13;2.58;;;;;;;18.96;36.42;95780.50;5072549;28;20039;-73
2022/10/07 09:49:33;;;;;;;3.75;2.00;;;;;;;18.94;37.54;95769.28;5040934;28;20032;-73
2022/10/07 09:52:04;;;;;;;3.85;2.10;;;;;;;19.02;37.12;95776.41;5072448;28;20037;-73
2022/10/07 09:54:31;;;;;;;3.50;2.10;;;;;;;19.12;35.86;95766.59;5056401;28;20103;-73
2022/10/07 09:56:58;;;;;;;3.10;1.75;;;;;;;19.18;35.30;95771.22;5073539;28;20116;-73
2022/10/07 09:59:30;;;;;;;4.50;1.70;;;;;;;19.13;35.11;95762.97;5055888;28;20108;-73
2022/10/07 10:02:14;;;;;;;2.40;1.80;;;;;;;19.03;36.80;95764.88;5072244;28;20504;-73
2022/10/07 10:04:49;;;;;;;4.35;2.15;;;;;;;19.02;36.68;95761.44;5058335;28;20032;-73
2022/10/07 10:07:24;;;;;;;5.65;2.00;;;;;;;19.17;34.98;95751.97;5072135;28;20028;-73
2022/10/07 10:09:54;;;;;;;4.32;2.10;;;;;;;19.20;35.29;95754.28;5038935;28;20111;-73
2022/10/07 10:12:20;;;;;;;3.87;1.93;;;;;;;19.20;35.08;95740.31;5055323;28;20052;-73
2022/10/07 10:14:53;;;;;;;3.13;1.70;;;;;;;19.13;35.05;95736.63;5038781;28;20267;-73
2022/10/07 10:17:37;;;;;;;2.30;1.60;;;;;;;19.08;36.33;95731.84;5039129;28;20093;-73
2022/10/07 10:20:32;;;;;;;3.15;1.63;;;;;;;19.22;35.24;95734.88;5056121;28;20028;-73
2022/10/07 10:22:59;;;;;;;2.92;1.90;;;;;;;19.27;34.22;95727.31;5071178;28;20040;-73
2022/10/07 10:28:27;;;;;;;3.45;1.80;;;;;;;19.20;35.52;95727.97;5072238;28;20059;-73
2022/10/07 10:30:56;;;;;;;6.13;2.15;;;;;;;19.16;35.13;95717.88;5071803;28;20039;-73
2022/10/07 10:33:25;;;;;;;4.03;2.55;;;;;;;19.08;36.42;95712.59;5071900;28;20032;-73
2022/10/07 10:36:19;;;;;;;4.57;2.05;;;;;;;18.98;36.22;95707.44;5072728;28;20059;-73
2022/10/07 10:39:01;;;;;;;3.88;1.98;;;;;;;19.12;36.00;95709.50;5071876;28;20033;-73
2022/10/07 10:41:34;;;;;;;3.55;1.90;;;;;;;19.11;35.98;95702.59;5040200;28;20486;-73
2022/10/07 10:44:11;;;;;;;3.90;1.95;;;;;;;19.33;35.30;95698.53;5072549;28;20060;-73
2022/10/07 10:46:48;;;;;;;7.03;2.15;;;;;;;19.16;36.07;95695.00;5054573;28;20032;-73
2022/10/07 10:49:26;;;;;;;3.40;2.00;;;;;;;19.19;37.20;95707.03;5071447;28;20024;-73
2022/10/07 10:52:24;;;;;;;7.60;2.70;;;;;;;19.24;36.86;95706.56;5071270;28;20029;-73
2022/10/07 10:55:20;;;;;;;4.82;2.60;;;;;;;19.30;37.03;95705.94;5054836;28;20393;-73
2022/10/07 10:57:51;;;;;;;7.15;2.72;;;;;;;19.31;36.82;95697.88;5054149;28;20044;-74
2022/10/07 11:00:18;;;;;;;5.40;2.65;;;;;;;19.45;35.97;95688.53;5072406;28;20540;-73
2022/10/07 11:03:16;;;;;;;4.75;2.92;;;;;;;19.51;36.00;95682.63;5054666;28;20040;-73
2022/10/07 11:05:41;;;;;;;6.03;2.53;;;;;;;19.49;36.68;95681.13;5057061;28;20067;-73
2022/10/07 11:08:16;;;;;;;5.05;2.65;;;;;;;19.16;36.43;95673.94;5054446;28;20056;-73
2022/10/07 11:10:53;;;;;;;4.45;2.40;;;;;;;19.28;35.73;95671.00;5070886;28;20040;-73
2022/10/07 11:13:29;;;;;;;7.50;2.40;;;;;;;19.27;36.16;95672.81;5055264;28;20048;-73
2022/10/07 11:16:06;;;;;;;4.53;2.45;;;;;;;19.34;36.80;95673.84;5054615;28;20029;-73
2022/10/07 11:18:44;;;;;;;3.85;2.20;;;;;;;19.37;36.22;95670.06;5072419;28;20048;-73
2022/10/07 11:21:26;;;;;;;3.22;2.30;;;;;;;19.23;35.78;95670.69;5054301;28;20029;-73
2022/10/07 11:24:10;;;;;;;4.40;2.38;;;;;;;19.18;35.37;95660.63;5055382;28;20089;-73
2022/10/07 11:26:44;;;;;;;5.45;3.10;;;;;;;19.41;36.24;95655.56;5071749;28;20510;-74
2022/10/07 11:29:17;;;;;;;7.28;2.33;;;;;;;19.45;36.09;95656.09;5055041;28;20095;-73
2022/10/07 11:31:46;;;;;;;11.68;2.83;;;;;;;19.61;35.90;95661.38;5070514;28;20035;-73
2022/10/07 11:34:17;;;;;;;7.18;2.97;;;;;;;19.58;36.22;95657.25;5071689;28;20028;-73
2022/10/07 11:37:06;;;;;;;12.20;6.13;;;;;;;19.66;35.45;95651.22;5053767;28;20048;-73
2022/10/07 11:39:31;;;;;;;8.93;3.70;;;;;;;19.71;35.03;95650.72;5064751;28;20123;-73
2022/10/07 11:42:21;;;;;;;5.35;3.10;;;;;;;19.56;35.59;95650.53;5053586;28;20461;-73
2022/10/07 11:45:05;;;;;;;5.13;2.50;;;;;;;19.60;35.23;95642.13;5056277;28;20040;-73
2022/10/07 11:47:34;;;;;;;11.73;6.35;;;;;;;19.59;35.53;95639.66;5037127;28;20060;-73
2022/10/07 11:50:07;;;;;;;10.50;4.88;;;;;;;19.60;36.15;95642.13;5037114;28;20086;-73
2022/10/07 11:52:32;;;;;;;8.25;4.63;;;;;;;19.58;35.61;95643.25;5070187;28;20063;-73
2022/10/07 11:55:04;;;;;;;5.65;2.83;;;;;;;19.77;34.99;95634.25;5053819;28;20060;-73
2022/10/07 11:57:32;;;;;;;4.45;2.70;;;;;;;19.62;35.32;95631.44;5053848;28;20032;-73